sensor_id;sensor_type;location;lat;lon;timestamp;P1;durP1;ratioP1;P2;durP2;ratioP2
69083;SDS011;56185;48.526;9.044;2022-10-16T00:00:32;4.82;;;1.40;;
69083;SDS011;56185;48.526;9.044;2022-10-16T00:02:57;2.80;;;1.40;;
69083;SDS011;56185;48.526;9.044;2022-10-16T00:05:23;3.40;;;1.30;;
69083;SDS011;56185;48.526;9.044;2022-10-16T00:07:48;3.45;;;1.50;;
69083;SDS011;56185;48.526;9.044;2022-10-16T00:10:13;7.27;;;1.47;;
69083;SDS011;56185;48.526;9.044;2022-10-16T00:12:39;2.53;;;1.40;;
69083;SDS011;56185;48.526;9.044;2022-10-16T00:15:04;6.97;;;1.47;;
69083;SDS011;56185;48.526;9.044;2022-10-16T00:17:30;5.50;;;1.35;;
69083;SDS011;56185;48.526;9.044;2022-10-16T00:19:55;3.10;;;1.30;;
69083;SDS011;56185;48.526;9.044;2022-10-16T00:22:20;2.13;;;1.33;;
69083;SDS011;56185;48.526;9.044;2022-10-16T00:24:46;2.93;;;1.40;;
69083;SDS011;56185;48.526;9.044;2022-10-16T00:27:11;4.47;;;1.30;;
69083;SDS011;56185;48.526;9.044;2022-10-16T00:29:36;4.33;;;1.47;;
69083;SDS011;56185;48.526;9.044;2022-10-16T00:32:01;3.67;;;1.50;;
69083;SDS011;56185;48.526;9.044;2022-10-16T00:34:27;3.83;;;1.33;;
69083;SDS011;56185;48.526;9.044;2022-10-16T00:36:52;2.47;;;1.20;;
69083;SDS011;56185;48.526;9.044;2022-10-16T00:39:17;3.40;;;1.60;;
69083;SDS011;56185;48.526;9.044;2022-10-16T00:41:42;3.30;;;1.40;;
69083;SDS011;56185;48.526;9.044;2022-10-16T00:47:09;5.65;;;1.50;;
69083;SDS011;56185;48.526;9.044;2022-10-16T00:49:36;2.13;;;1.42;;
69083;SDS011;56185;48.526;9.044;2022-10-16T00:52:01;4.50;;;1.85;;
69083;SDS011;56185;48.526;9.044;2022-10-16T00:54:29;5.18;;;1.27;;
69083;SDS011;56185;48.526;9.044;2022-10-16T00:56:56;6.40;;;1.40;;
69083;SDS011;56185;48.526;9.044;2022-10-16T00:59:26;3.53;;;1.45;;
69083;SDS011;56185;48.526;9.044;2022-10-16T01:01:54;2.22;;;1.40;;
69083;SDS011;56185;48.526;9.044;2022-10-16T01:04:19;3.45;;;2.13;;
69083;SDS011;56185;48.526;9.044;2022-10-16T01:09:17;2.85;;;1.52;;
69083;SDS011;56185;48.526;9.044;2022-10-16T01:15:37;4.97;;;1.55;;
69083;SDS011;56185;48.526;9.044;2022-10-16T01:18:19;5.25;;;1.52;;
69083;SDS011;56185;48.526;9.044;2022-10-16T01:21:02;3.83;;;1.30;;
69083;SDS011;56185;48.526;9.044;2022-10-16T01:26:06;2.70;;;1.10;;
69083;SDS011;56185;48.526;9.044;2022-10-16T01:28:41;5.68;;;1.55;;
69083;SDS011;56185;48.526;9.044;2022-10-16T01:31:14;5.38;;;1.63;;
69083;SDS011;56185;48.526;9.044;2022-10-16T01:33:44;2.65;;;1.30;;
69083;SDS011;56185;48.526;9.044;2022-10-16T01:36:16;2.33;;;1.30;;
69083;SDS011;56185;48.526;9.044;2022-10-16T01:38:49;5.55;;;1.50;;
69083;SDS011;56185;48.526;9.044;2022-10-16T01:41:22;3.55;;;1.40;;
69083;SDS011;56185;48.526;9.044;2022-10-16T01:46:40;7.85;;;1.42;;
69083;SDS011;56185;48.526;9.044;2022-10-16T01:49:08;10.18;;;1.50;;
69083;SDS011;56185;48.526;9.044;2022-10-16T01:51:35;3.17;;;1.42;;
69083;SDS011;56185;48.526;9.044;2022-10-16T01:54:02;4.57;;;1.40;;
69083;SDS011;56185;48.526;9.044;2022-10-16T01:56:31;5.10;;;1.73;;
69083;SDS011;56185;48.526;9.044;2022-10-16T01:59:00;2.90;;;1.30;;
69083;SDS011;56185;48.526;9.044;2022-10-16T02:01:28;3.00;;;1.50;;
69083;SDS011;56185;48.526;9.044;2022-10-16T02:03:59;5.30;;;1.70;;
69083;SDS011;56185;48.526;9.044;2022-10-16T02:06:29;3.25;;;1.50;;
69083;SDS011;56185;48.526;9.044;2022-10-16T02:08:54;6.18;;;1.70;;
69083;SDS011;56185;48.526;9.044;2022-10-16T02:11:19;3.22;;;1.80;;
69083;SDS011;56185;48.526;9.044;2022-10-16T02:13:46;5.20;;;1.60;;
69083;SDS011;56185;48.526;9.044;2022-10-16T02:16:15;4.20;;;1.50;;
69083;SDS011;56185;48.526;9.044;2022-10-16T02:18:41;3.75;;;1.40;;
69083;SDS011;56185;48.526;9.044;2022-10-16T02:23:54;3.70;;;1.52;;
69083;SDS011;56185;48.526;9.044;2022-10-16T02:26:38;3.35;;;1.65;;
69083;SDS011;56185;48.526;9.044;2022-10-16T02:29:10;2.78;;;1.40;;
69083;SDS011;56185;48.526;9.044;2022-10-16T02:31:41;4.30;;;1.50;;
69083;SDS011;56185;48.526;9.044;2022-10-16T02:34:11;6.95;;;1.90;;
69083;SDS011;56185;48.526;9.044;2022-10-16T02:36:38;3.95;;;1.40;;
69083;SDS011;56185;48.526;9.044;2022-10-16T02:39:05;3.55;;;1.80;;
69083;SDS011;56185;48.526;9.044;2022-10-16T02:41:31;8.30;;;1.92;;
69083;SDS011;56185;48.526;9.044;2022-10-16T02:43:57;7.57;;;1.80;;
69083;SDS011;56185;48.526;9.044;2022-10-16T02:46:22;8.63;;;1.80;;
69083;SDS011;56185;48.526;9.044;2022-10-16T02:48:47;4.60;;;1.90;;
69083;SDS011;56185;48.526;9.044;2022-10-16T02:51:13;2.85;;;1.77;;
69083;SDS011;56185;48.526;9.044;2022-10-16T02:53:38;2.38;;;1.60;;
69083;SDS011;56185;48.526;9.044;2022-10-16T02:56:04;5.70;;;1.60;;
69083;SDS011;56185;48.526;9.044;2022-10-16T02:58:29;8.83;;;1.70;;
69083;SDS011;56185;48.526;9.044;2022-10-16T03:00:54;2.55;;;1.50;;
69083;SDS011;56185;48.526;9.044;2022-10-16T03:03:20;7.22;;;1.77;;
69083;SDS011;56185;48.526;9.044;2022-10-16T03:05:45;4.18;;;1.73;;
69083;SDS011;56185;48.526;9.044;2022-10-16T03:08:11;3.47;;;1.70;;
69083;SDS011;56185;48.526;9.044;2022-10-16T03:10:36;2.58;;;1.60;;
69083;SDS011;56185;48.526;9.044;2022-10-16T03:13:02;6.03;;;1.70;;
69083;SDS011;56185;48.526;9.044;2022-10-16T03:15:27;6.55;;;1.92;;
69083;SDS011;56185;48.526;9.044;2022-10-16T03:17:52;2.97;;;1.70;;
69083;SDS011;56185;48.526;9.044;2022-10-16T03:20:17;3.13;;;1.60;;
69083;SDS011;56185;48.526;9.044;2022-10-16T03:22:43;3.33;;;1.55;;
69083;SDS011;56185;48.526;9.044;2022-10-16T03:25:08;3.15;;;1.40;;
69083;SDS011;56185;48.526;9.044;2022-10-16T03:27:33;2.83;;;1.43;;
69083;SDS011;56185;48.526;9.044;2022-10-16T03:29:58;6.37;;;1.70;;
69083;SDS011;56185;48.526;9.044;2022-10-16T03:32:24;5.60;;;1.80;;
69083;SDS011;56185;48.526;9.044;2022-10-16T03:34:49;5.00;;;1.70;;
69083;SDS011;56185;48.526;9.044;2022-10-16T03:37:14;2.60;;;1.67;;
69083;SDS011;56185;48.526;9.044;2022-10-16T03:39:39;4.70;;;1.50;;
69083;SDS011;56185;48.526;9.044;2022-10-16T03:42:04;5.15;;;1.40;;
69083;SDS011;56185;48.526;9.044;2022-10-16T03:44:30;7.57;;;1.50;;
69083;SDS011;56185;48.526;9.044;2022-10-16T03:46:55;5.57;;;1.35;;
69083;SDS011;56185;48.526;9.044;2022-10-16T03:49:20;3.97;;;1.40;;
69083;SDS011;56185;48.526;9.044;2022-10-16T03:51:45;4.13;;;1.63;;
69083;SDS011;56185;48.526;9.044;2022-10-16T03:54:11;5.83;;;1.53;;
69083;SDS011;56185;48.526;9.044;2022-10-16T03:56:36;2.55;;;1.50;;
69083;SDS011;56185;48.526;9.044;2022-10-16T03:59:01;5.63;;;1.37;;
69083;SDS011;56185;48.526;9.044;2022-10-16T04:01:26;7.20;;;1.60;;
69083;SDS011;56185;48.526;9.044;2022-10-16T04:03:52;3.35;;;1.50;;
69083;SDS011;56185;48.526;9.044;2022-10-16T04:06:17;1.97;;;1.43;;
69083;SDS011;56185;48.526;9.044;2022-10-16T04:08:43;4.60;;;1.60;;
69083;SDS011;56185;48.526;9.044;2022-10-16T04:11:08;9.10;;;1.70;;
69083;SDS011;56185;48.526;9.044;2022-10-16T04:13:34;4.10;;;1.50;;
69083;SDS011;56185;48.526;9.044;2022-10-16T04:15:59;10.63;;;1.70;;
69083;SDS011;56185;48.526;9.044;2022-10-16T04:18:24;4.60;;;1.60;;
69083;SDS011;56185;48.526;9.044;2022-10-16T04:20:49;5.63;;;1.60;;
69083;SDS011;56185;48.526;9.044;2022-10-16T04:23:15;3.53;;;1.70;;
69083;SDS011;56185;48.526;9.044;2022-10-16T04:25:40;3.70;;;1.47;;
69083;SDS011;56185;48.526;9.044;2022-10-16T04:28:05;7.27;;;1.50;;
69083;SDS011;56185;48.526;9.044;2022-10-16T04:30:30;3.03;;;1.50;;
69083;SDS011;56185;48.526;9.044;2022-10-16T04:32:55;5.90;;;1.58;;
69083;SDS011;56185;48.526;9.044;2022-10-16T04:35:21;4.70;;;1.50;;
69083;SDS011;56185;48.526;9.044;2022-10-16T04:37:46;4.85;;;1.40;;
69083;SDS011;56185;48.526;9.044;2022-10-16T04:40:12;4.63;;;1.30;;
69083;SDS011;56185;48.526;9.044;2022-10-16T04:42:38;4.68;;;1.30;;
69083;SDS011;56185;48.526;9.044;2022-10-16T04:45:04;2.40;;;1.40;;
69083;SDS011;56185;48.526;9.044;2022-10-16T04:47:30;4.07;;;1.30;;
69083;SDS011;56185;48.526;9.044;2022-10-16T04:49:55;6.70;;;1.60;;
69083;SDS011;56185;48.526;9.044;2022-10-16T04:52:21;5.93;;;1.37;;
69083;SDS011;56185;48.526;9.044;2022-10-16T04:54:46;3.27;;;1.30;;
69083;SDS011;56185;48.526;9.044;2022-10-16T04:57:11;2.93;;;1.50;;
69083;SDS011;56185;48.526;9.044;2022-10-16T04:59:36;5.03;;;1.40;;
69083;SDS011;56185;48.526;9.044;2022-10-16T05:02:01;9.25;;;1.52;;
69083;SDS011;56185;48.526;9.044;2022-10-16T05:04:27;7.25;;;1.90;;
69083;SDS011;56185;48.526;9.044;2022-10-16T05:06:52;5.70;;;1.63;;
69083;SDS011;56185;48.526;9.044;2022-10-16T05:09:17;2.20;;;1.30;;
69083;SDS011;56185;48.526;9.044;2022-10-16T05:11:42;4.53;;;1.80;;
69083;SDS011;56185;48.526;9.044;2022-10-16T05:14:08;4.35;;;1.40;;
69083;SDS011;56185;48.526;9.044;2022-10-16T05:16:33;3.03;;;1.40;;
69083;SDS011;56185;48.526;9.044;2022-10-16T05:18:58;4.50;;;1.42;;
69083;SDS011;56185;48.526;9.044;2022-10-16T05:21:23;3.53;;;1.50;;
69083;SDS011;56185;48.526;9.044;2022-10-16T05:23:49;4.10;;;1.50;;
69083;SDS011;56185;48.526;9.044;2022-10-16T05:26:14;5.30;;;1.60;;
69083;SDS011;56185;48.526;9.044;2022-10-16T05:28:39;5.72;;;1.23;;
69083;SDS011;56185;48.526;9.044;2022-10-16T05:31:05;8.07;;;1.50;;
69083;SDS011;56185;48.526;9.044;2022-10-16T05:33:32;5.22;;;1.58;;
69083;SDS011;56185;48.526;9.044;2022-10-16T05:36:00;7.60;;;1.60;;
69083;SDS011;56185;48.526;9.044;2022-10-16T05:38:35;8.60;;;1.50;;
69083;SDS011;56185;48.526;9.044;2022-10-16T05:41:01;3.47;;;1.45;;
69083;SDS011;56185;48.526;9.044;2022-10-16T05:43:28;4.50;;;1.40;;
69083;SDS011;56185;48.526;9.044;2022-10-16T05:48:32;6.40;;;1.55;;
69083;SDS011;56185;48.526;9.044;2022-10-16T05:53:27;5.00;;;1.60;;
69083;SDS011;56185;48.526;9.044;2022-10-16T05:55:54;3.25;;;1.50;;
69083;SDS011;56185;48.526;9.044;2022-10-16T05:58:20;4.22;;;1.60;;
69083;SDS011;56185;48.526;9.044;2022-10-16T06:00:53;2.65;;;1.38;;
69083;SDS011;56185;48.526;9.044;2022-10-16T06:03:22;2.28;;;1.40;;
69083;SDS011;56185;48.526;9.044;2022-10-16T06:05:48;3.28;;;1.30;;
69083;SDS011;56185;48.526;9.044;2022-10-16T06:08:13;4.55;;;1.35;;
69083;SDS011;56185;48.526;9.044;2022-10-16T06:10:38;5.35;;;1.42;;
69083;SDS011;56185;48.526;9.044;2022-10-16T06:13:03;1.87;;;1.33;;
69083;SDS011;56185;48.526;9.044;2022-10-16T06:15:29;4.95;;;1.60;;
69083;SDS011;56185;48.526;9.044;2022-10-16T06:17:54;2.05;;;1.33;;
69083;SDS011;56185;48.526;9.044;2022-10-16T06:20:19;9.10;;;1.60;;
69083;SDS011;56185;48.526;9.044;2022-10-16T06:22:45;3.47;;;1.50;;
69083;SDS011;56185;48.526;9.044;2022-10-16T06:25:10;6.20;;;1.70;;
69083;SDS011;56185;48.526;9.044;2022-10-16T06:27:35;5.05;;;1.95;;
69083;SDS011;56185;48.526;9.044;2022-10-16T06:30:00;4.13;;;2.17;;
69083;SDS011;56185;48.526;9.044;2022-10-16T06:32:26;6.22;;;2.50;;
69083;SDS011;56185;48.526;9.044;2022-10-16T06:34:52;5.03;;;2.05;;
69083;SDS011;56185;48.526;9.044;2022-10-16T06:37:17;4.53;;;1.93;;
69083;SDS011;56185;48.526;9.044;2022-10-16T06:39:42;4.82;;;2.08;;
69083;SDS011;56185;48.526;9.044;2022-10-16T06:42:08;5.87;;;1.87;;
69083;SDS011;56185;48.526;9.044;2022-10-16T06:44:33;5.17;;;2.17;;
69083;SDS011;56185;48.526;9.044;2022-10-16T06:46:58;5.73;;;1.67;;
69083;SDS011;56185;48.526;9.044;2022-10-16T06:49:23;5.17;;;1.80;;
69083;SDS011;56185;48.526;9.044;2022-10-16T06:51:49;2.40;;;1.70;;
69083;SDS011;56185;48.526;9.044;2022-10-16T06:54:14;4.00;;;1.93;;
69083;SDS011;56185;48.526;9.044;2022-10-16T06:56:40;5.57;;;2.00;;
69083;SDS011;56185;48.526;9.044;2022-10-16T06:59:05;6.13;;;2.30;;
69083;SDS011;56185;48.526;9.044;2022-10-16T07:01:31;3.20;;;1.87;;
69083;SDS011;56185;48.526;9.044;2022-10-16T07:03:56;4.57;;;1.90;;
69083;SDS011;56185;48.526;9.044;2022-10-16T07:06:22;6.13;;;2.10;;
69083;SDS011;56185;48.526;9.044;2022-10-16T07:08:49;6.13;;;2.17;;
69083;SDS011;56185;48.526;9.044;2022-10-16T07:11:16;4.85;;;1.70;;
69083;SDS011;56185;48.526;9.044;2022-10-16T07:13:43;5.75;;;2.05;;
69083;SDS011;56185;48.526;9.044;2022-10-16T07:18:36;3.30;;;1.88;;
69083;SDS011;56185;48.526;9.044;2022-10-16T07:21:05;6.45;;;2.10;;
69083;SDS011;56185;48.526;9.044;2022-10-16T07:23:32;3.83;;;1.80;;
69083;SDS011;56185;48.526;9.044;2022-10-16T07:25:57;3.88;;;1.70;;
69083;SDS011;56185;48.526;9.044;2022-10-16T07:28:22;2.63;;;1.60;;
69083;SDS011;56185;48.526;9.044;2022-10-16T07:30:48;3.90;;;1.70;;
69083;SDS011;56185;48.526;9.044;2022-10-16T07:33:13;3.85;;;1.80;;
69083;SDS011;56185;48.526;9.044;2022-10-16T07:35:47;4.75;;;1.80;;
69083;SDS011;56185;48.526;9.044;2022-10-16T07:38:21;7.57;;;1.90;;
69083;SDS011;56185;48.526;9.044;2022-10-16T07:40:46;5.22;;;2.05;;
69083;SDS011;56185;48.526;9.044;2022-10-16T07:43:12;5.57;;;1.67;;
69083;SDS011;56185;48.526;9.044;2022-10-16T07:45:40;8.10;;;1.98;;
69083;SDS011;56185;48.526;9.044;2022-10-16T07:48:12;6.93;;;2.00;;
69083;SDS011;56185;48.526;9.044;2022-10-16T07:50:37;4.23;;;2.10;;
69083;SDS011;56185;48.526;9.044;2022-10-16T07:53:02;4.40;;;2.20;;
69083;SDS011;56185;48.526;9.044;2022-10-16T07:55:27;6.93;;;2.00;;
69083;SDS011;56185;48.526;9.044;2022-10-16T07:57:53;4.80;;;1.80;;
69083;SDS011;56185;48.526;9.044;2022-10-16T08:00:18;4.70;;;1.80;;
69083;SDS011;56185;48.526;9.044;2022-10-16T08:02:43;5.10;;;2.00;;
69083;SDS011;56185;48.526;9.044;2022-10-16T08:05:08;6.60;;;1.90;;
69083;SDS011;56185;48.526;9.044;2022-10-16T08:07:33;2.93;;;1.87;;
69083;SDS011;56185;48.526;9.044;2022-10-16T08:09:59;5.30;;;1.83;;
69083;SDS011;56185;48.526;9.044;2022-10-16T08:12:27;4.20;;;1.90;;
69083;SDS011;56185;48.526;9.044;2022-10-16T08:14:52;3.45;;;1.70;;
69083;SDS011;56185;48.526;9.044;2022-10-16T08:17:17;4.80;;;1.90;;
69083;SDS011;56185;48.526;9.044;2022-10-16T08:19:46;9.57;;;4.97;;
69083;SDS011;56185;48.526;9.044;2022-10-16T08:22:12;6.18;;;3.90;;
69083;SDS011;56185;48.526;9.044;2022-10-16T08:24:38;5.55;;;2.85;;
69083;SDS011;56185;48.526;9.044;2022-10-16T08:27:03;4.33;;;2.23;;
69083;SDS011;56185;48.526;9.044;2022-10-16T08:29:29;5.72;;;1.90;;
69083;SDS011;56185;48.526;9.044;2022-10-16T08:31:54;3.35;;;1.98;;
69083;SDS011;56185;48.526;9.044;2022-10-16T08:34:19;4.27;;;1.90;;
69083;SDS011;56185;48.526;9.044;2022-10-16T08:36:44;2.78;;;1.75;;
69083;SDS011;56185;48.526;9.044;2022-10-16T08:39:10;4.90;;;1.77;;
69083;SDS011;56185;48.526;9.044;2022-10-16T08:49:56;2.90;;;1.70;;
69083;SDS011;56185;48.526;9.044;2022-10-16T08:52:25;6.35;;;2.20;;
69083;SDS011;56185;48.526;9.044;2022-10-16T08:54:57;6.03;;;2.25;;
69083;SDS011;56185;48.526;9.044;2022-10-16T08:57:24;5.15;;;2.70;;
69083;SDS011;56185;48.526;9.044;2022-10-16T08:59:51;5.68;;;3.20;;
69083;SDS011;56185;48.526;9.044;2022-10-16T09:07:32;5.78;;;2.20;;
69083;SDS011;56185;48.526;9.044;2022-10-16T09:13:22;4.25;;;2.30;;
69083;SDS011;56185;48.526;9.044;2022-10-16T09:18:53;3.28;;;1.83;;
69083;SDS011;56185;48.526;9.044;2022-10-16T09:21:31;3.05;;;2.00;;
69083;SDS011;56185;48.526;9.044;2022-10-16T09:24:17;4.65;;;1.70;;
69083;SDS011;56185;48.526;9.044;2022-10-16T09:26:44;4.70;;;2.05;;
69083;SDS011;56185;48.526;9.044;2022-10-16T09:29:14;6.30;;;1.60;;
69083;SDS011;56185;48.526;9.044;2022-10-16T09:31:42;2.08;;;1.40;;
69083;SDS011;56185;48.526;9.044;2022-10-16T09:34:13;3.92;;;1.92;;
69083;SDS011;56185;48.526;9.044;2022-10-16T09:36:43;4.65;;;1.80;;
69083;SDS011;56185;48.526;9.044;2022-10-16T09:39:11;1.77;;;1.35;;
69083;SDS011;56185;48.526;9.044;2022-10-16T09:41:37;1.98;;;1.35;;
69083;SDS011;56185;48.526;9.044;2022-10-16T09:44:06;3.33;;;1.50;;
69083;SDS011;56185;48.526;9.044;2022-10-16T09:47:03;2.55;;;1.80;;
69083;SDS011;56185;48.526;9.044;2022-10-16T09:49:29;2.10;;;1.60;;
69083;SDS011;56185;48.526;9.044;2022-10-16T09:52:11;2.53;;;1.33;;
69083;SDS011;56185;48.526;9.044;2022-10-16T09:54:48;2.80;;;1.50;;
69083;SDS011;56185;48.526;9.044;2022-10-16T09:57:14;3.50;;;1.40;;
69083;SDS011;56185;48.526;9.044;2022-10-16T09:59:47;1.90;;;1.20;;
69083;SDS011;56185;48.526;9.044;2022-10-16T10:02:17;4.53;;;1.70;;
69083;SDS011;56185;48.526;9.044;2022-10-16T10:04:51;3.63;;;1.60;;
69083;SDS011;56185;48.526;9.044;2022-10-16T10:07:19;3.45;;;1.27;;
69083;SDS011;56185;48.526;9.044;2022-10-16T10:09:48;4.25;;;1.55;;
69083;SDS011;56185;48.526;9.044;2022-10-16T10:12:29;2.05;;;1.50;;
69083;SDS011;56185;48.526;9.044;2022-10-16T10:14:56;2.60;;;1.60;;
69083;SDS011;56185;48.526;9.044;2022-10-16T10:17:28;5.97;;;2.03;;
69083;SDS011;56185;48.526;9.044;2022-10-16T10:19:55;2.67;;;1.60;;
69083;SDS011;56185;48.526;9.044;2022-10-16T10:30:22;2.97;;;1.52;;
69083;SDS011;56185;48.526;9.044;2022-10-16T10:38:50;3.38;;;1.50;;
69083;SDS011;56185;48.526;9.044;2022-10-16T10:47:19;4.38;;;1.30;;
69083;SDS011;56185;48.526;9.044;2022-10-16T10:52:47;1.90;;;1.20;;
69083;SDS011;56185;48.526;9.044;2022-10-16T10:55:24;4.03;;;1.13;;
69083;SDS011;56185;48.526;9.044;2022-10-16T11:11:35;3.05;;;1.20;;
69083;SDS011;56185;48.526;9.044;2022-10-16T11:14:14;3.53;;;0.95;;
69083;SDS011;56185;48.526;9.044;2022-10-16T11:19:31;1.40;;;1.10;;
69083;SDS011;56185;48.526;9.044;2022-10-16T11:24:45;3.65;;;1.30;;
69083;SDS011;56185;48.526;9.044;2022-10-16T11:27:16;2.88;;;1.17;;
69083;SDS011;56185;48.526;9.044;2022-10-16T11:29:48;5.35;;;1.35;;
69083;SDS011;56185;48.526;9.044;2022-10-16T11:34:52;2.17;;;1.10;;
69083;SDS011;56185;48.526;9.044;2022-10-16T11:37:23;1.67;;;1.05;;
69083;SDS011;56185;48.526;9.044;2022-10-16T11:39:56;2.22;;;1.30;;
69083;SDS011;56185;48.526;9.044;2022-10-16T11:42:30;6.53;;;1.10;;
69083;SDS011;56185;48.526;9.044;2022-10-16T11:47:46;3.92;;;1.17;;
69083;SDS011;56185;48.526;9.044;2022-10-16T11:56:11;2.30;;;1.20;;
69083;SDS011;56185;48.526;9.044;2022-10-16T12:07:09;2.10;;;1.10;;
69083;SDS011;56185;48.526;9.044;2022-10-16T12:18:40;5.35;;;1.20;;
69083;SDS011;56185;48.526;9.044;2022-10-16T12:21:07;2.55;;;1.05;;
69083;SDS011;56185;48.526;9.044;2022-10-16T12:23:36;3.03;;;1.00;;
69083;SDS011;56185;48.526;9.044;2022-10-16T12:26:03;3.90;;;1.20;;
69083;SDS011;56185;48.526;9.044;2022-10-16T12:28:30;1.55;;;1.10;;
69083;SDS011;56185;48.526;9.044;2022-10-16T12:30:58;1.58;;;1.10;;
69083;SDS011;56185;48.526;9.044;2022-10-16T12:33:26;2.50;;;1.20;;
69083;SDS011;56185;48.526;9.044;2022-10-16T12:36:00;2.33;;;1.10;;
69083;SDS011;56185;48.526;9.044;2022-10-16T12:38:30;3.33;;;1.15;;
69083;SDS011;56185;48.526;9.044;2022-10-16T12:41:24;2.17;;;1.10;;
69083;SDS011;56185;48.526;9.044;2022-10-16T12:43:51;1.60;;;1.00;;
69083;SDS011;56185;48.526;9.044;2022-10-16T12:48:43;10.40;;;1.50;;
69083;SDS011;56185;48.526;9.044;2022-10-16T12:51:10;3.47;;;1.25;;
69083;SDS011;56185;48.526;9.044;2022-10-16T12:53:35;2.50;;;1.30;;
69083;SDS011;56185;48.526;9.044;2022-10-16T13:06:33;2.00;;;1.17;;
69083;SDS011;56185;48.526;9.044;2022-10-16T13:12:13;3.00;;;1.38;;
69083;SDS011;56185;48.526;9.044;2022-10-16T13:15:23;2.97;;;1.60;;
69083;SDS011;56185;48.526;9.044;2022-10-16T13:18:01;1.95;;;1.30;;
69083;SDS011;56185;48.526;9.044;2022-10-16T13:23:30;1.90;;;1.17;;
69083;SDS011;56185;48.526;9.044;2022-10-16T13:29:11;1.80;;;1.30;;
69083;SDS011;56185;48.526;9.044;2022-10-16T13:31:37;4.20;;;1.33;;
69083;SDS011;56185;48.526;9.044;2022-10-16T13:34:04;4.00;;;1.40;;
69083;SDS011;56185;48.526;9.044;2022-10-16T13:36:35;3.60;;;1.30;;
69083;SDS011;56185;48.526;9.044;2022-10-16T13:44:27;1.90;;;1.20;;
69083;SDS011;56185;48.526;9.044;2022-10-16T13:47:02;3.08;;;1.30;;
69083;SDS011;56185;48.526;9.044;2022-10-16T13:49:30;5.60;;;1.40;;
69083;SDS011;56185;48.526;9.044;2022-10-16T13:51:56;2.65;;;1.20;;
69083;SDS011;56185;48.526;9.044;2022-10-16T13:54:30;2.55;;;1.10;;
69083;SDS011;56185;48.526;9.044;2022-10-16T13:56:56;2.60;;;1.20;;
69083;SDS011;56185;48.526;9.044;2022-10-16T13:59:34;1.70;;;1.20;;
69083;SDS011;56185;48.526;9.044;2022-10-16T14:02:00;2.13;;;1.35;;
69083;SDS011;56185;48.526;9.044;2022-10-16T14:07:28;2.95;;;1.40;;
69083;SDS011;56185;48.526;9.044;2022-10-16T14:09:55;1.58;;;1.20;;
69083;SDS011;56185;48.526;9.044;2022-10-16T14:12:35;2.33;;;1.55;;
69083;SDS011;56185;48.526;9.044;2022-10-16T14:15:15;3.17;;;1.30;;
69083;SDS011;56185;48.526;9.044;2022-10-16T14:17:50;2.05;;;1.30;;
69083;SDS011;56185;48.526;9.044;2022-10-16T14:20:17;2.10;;;1.40;;
69083;SDS011;56185;48.526;9.044;2022-10-16T14:22:43;2.50;;;1.20;;
69083;SDS011;56185;48.526;9.044;2022-10-16T14:30:12;2.80;;;1.30;;
69083;SDS011;56185;48.526;9.044;2022-10-16T14:32:41;2.97;;;1.38;;
69083;SDS011;56185;48.526;9.044;2022-10-16T14:37:54;3.20;;;1.33;;
69083;SDS011;56185;48.526;9.044;2022-10-16T14:40:27;3.75;;;1.40;;
69083;SDS011;56185;48.526;9.044;2022-10-16T14:42:55;3.13;;;1.20;;
69083;SDS011;56185;48.526;9.044;2022-10-16T14:45:21;3.95;;;1.50;;
69083;SDS011;56185;48.526;9.044;2022-10-16T14:47:53;2.95;;;1.50;;
69083;SDS011;56185;48.526;9.044;2022-10-16T14:50:21;3.10;;;1.63;;
69083;SDS011;56185;48.526;9.044;2022-10-16T14:52:50;2.53;;;1.30;;
69083;SDS011;56185;48.526;9.044;2022-10-16T14:55:15;3.17;;;1.38;;
69083;SDS011;56185;48.526;9.044;2022-10-16T14:57:45;3.97;;;1.60;;
69083;SDS011;56185;48.526;9.044;2022-10-16T15:00:21;2.95;;;1.60;;
69083;SDS011;56185;48.526;9.044;2022-10-16T15:02:48;1.95;;;1.40;;
69083;SDS011;56185;48.526;9.044;2022-10-16T15:05:16;2.63;;;1.50;;
69083;SDS011;56185;48.526;9.044;2022-10-16T15:07:41;2.88;;;1.45;;
69083;SDS011;56185;48.526;9.044;2022-10-16T15:10:07;3.15;;;1.50;;
69083;SDS011;56185;48.526;9.044;2022-10-16T15:12:32;2.65;;;1.30;;
69083;SDS011;56185;48.526;9.044;2022-10-16T15:14:58;3.55;;;1.50;;
69083;SDS011;56185;48.526;9.044;2022-10-16T15:17:23;3.85;;;1.52;;
69083;SDS011;56185;48.526;9.044;2022-10-16T15:19:48;2.47;;;1.57;;
69083;SDS011;56185;48.526;9.044;2022-10-16T15:22:21;2.20;;;1.70;;
69083;SDS011;56185;48.526;9.044;2022-10-16T15:24:50;4.60;;;1.70;;
69083;SDS011;56185;48.526;9.044;2022-10-16T15:27:16;3.42;;;1.52;;
69083;SDS011;56185;48.526;9.044;2022-10-16T15:29:41;3.80;;;1.63;;
69083;SDS011;56185;48.526;9.044;2022-10-16T15:32:08;2.63;;;1.73;;
69083;SDS011;56185;48.526;9.044;2022-10-16T15:34:34;2.25;;;1.35;;
69083;SDS011;56185;48.526;9.044;2022-10-16T15:37:02;2.47;;;1.60;;
69083;SDS011;56185;48.526;9.044;2022-10-16T15:39:28;2.63;;;1.30;;
69083;SDS011;56185;48.526;9.044;2022-10-16T15:41:53;2.25;;;1.50;;
69083;SDS011;56185;48.526;9.044;2022-10-16T15:44:19;3.73;;;1.70;;
69083;SDS011;56185;48.526;9.044;2022-10-16T16:42:48;3.97;;;2.10;;
69083;SDS011;56185;48.526;9.044;2022-10-16T16:45:55;4.65;;;2.20;;
69083;SDS011;56185;48.526;9.044;2022-10-16T16:48:21;6.22;;;2.03;;
69083;SDS011;56185;48.526;9.044;2022-10-16T16:50:46;12.18;;;2.13;;
69083;SDS011;56185;48.526;9.044;2022-10-16T16:53:11;6.63;;;2.27;;
69083;SDS011;56185;48.526;9.044;2022-10-16T16:55:37;5.47;;;2.10;;
69083;SDS011;56185;48.526;9.044;2022-10-16T16:58:02;6.40;;;2.40;;
69083;SDS011;56185;48.526;9.044;2022-10-16T17:00:27;7.13;;;2.57;;
69083;SDS011;56185;48.526;9.044;2022-10-16T17:02:52;9.75;;;3.35;;
69083;SDS011;56185;48.526;9.044;2022-10-16T17:05:18;6.10;;;2.80;;
69083;SDS011;56185;48.526;9.044;2022-10-16T17:07:43;6.70;;;3.10;;
69083;SDS011;56185;48.526;9.044;2022-10-16T17:10:08;6.70;;;2.30;;
69083;SDS011;56185;48.526;9.044;2022-10-16T17:12:34;7.25;;;2.33;;
69083;SDS011;56185;48.526;9.044;2022-10-16T17:14:59;7.78;;;2.53;;
69083;SDS011;56185;48.526;9.044;2022-10-16T17:17:25;7.63;;;2.13;;
69083;SDS011;56185;48.526;9.044;2022-10-16T17:19:50;7.50;;;2.43;;
69083;SDS011;56185;48.526;9.044;2022-10-16T17:22:18;4.53;;;2.50;;
69083;SDS011;56185;48.526;9.044;2022-10-16T17:24:45;6.47;;;2.05;;
69083;SDS011;56185;48.526;9.044;2022-10-16T17:27:13;3.17;;;2.10;;
69083;SDS011;56185;48.526;9.044;2022-10-16T17:29:38;5.88;;;2.40;;
69083;SDS011;56185;48.526;9.044;2022-10-16T17:32:03;3.35;;;2.15;;
69083;SDS011;56185;48.526;9.044;2022-10-16T17:34:28;3.77;;;2.10;;
69083;SDS011;56185;48.526;9.044;2022-10-16T17:36:54;5.40;;;1.98;;
69083;SDS011;56185;48.526;9.044;2022-10-16T17:39:19;5.47;;;2.10;;
69083;SDS011;56185;48.526;9.044;2022-10-16T17:41:45;6.97;;;2.00;;
69083;SDS011;56185;48.526;9.044;2022-10-16T17:44:11;3.95;;;1.90;;
69083;SDS011;56185;48.526;9.044;2022-10-16T17:46:37;4.45;;;2.20;;
69083;SDS011;56185;48.526;9.044;2022-10-16T17:49:03;6.23;;;2.10;;
69083;SDS011;56185;48.526;9.044;2022-10-16T17:51:29;3.50;;;1.90;;
69083;SDS011;56185;48.526;9.044;2022-10-16T17:53:59;5.43;;;1.92;;
69083;SDS011;56185;48.526;9.044;2022-10-16T17:56:25;6.05;;;2.13;;
69083;SDS011;56185;48.526;9.044;2022-10-16T17:58:52;4.38;;;1.85;;
69083;SDS011;56185;48.526;9.044;2022-10-16T18:01:19;6.18;;;1.98;;
69083;SDS011;56185;48.526;9.044;2022-10-16T18:03:49;5.78;;;2.03;;
69083;SDS011;56185;48.526;9.044;2022-10-16T18:06:16;5.03;;;2.30;;
69083;SDS011;56185;48.526;9.044;2022-10-16T18:08:41;8.55;;;2.20;;
69083;SDS011;56185;48.526;9.044;2022-10-16T18:11:07;6.83;;;1.90;;
69083;SDS011;56185;48.526;9.044;2022-10-16T18:13:34;9.95;;;2.10;;
69083;SDS011;56185;48.526;9.044;2022-10-16T18:16:03;5.63;;;2.37;;
69083;SDS011;56185;48.526;9.044;2022-10-16T18:18:30;7.88;;;2.50;;
69083;SDS011;56185;48.526;9.044;2022-10-16T18:20:58;7.75;;;2.40;;